sensor_id;sensor_type;location;lat;lon;timestamp;pressure;altitude;pressure_sealevel;temperature;humidity
61408;BME280;47274;43.054;25.146;2023-05-11T00:00:26;95834.84;;;8.12;61.08
61408;BME280;47274;43.054;25.146;2023-05-11T00:02:52;95815.34;;;7.90;60.73
61408;BME280;47274;43.054;25.146;2023-05-11T00:05:18;95833.53;;;7.97;61.40
61408;BME280;47274;43.054;25.146;2023-05-11T00:07:44;95829.34;;;7.96;59.91
61408;BME280;47274;43.054;25.146;2023-05-11T00:10:10;95819.50;;;7.91;59.79
61408;BME280;47274;43.054;25.146;2023-05-11T00:12:36;95825.88;;;7.97;59.60
61408;BME280;47274;43.054;25.146;2023-05-11T00:15:02;95829.59;;;7.93;58.77
61408;BME280;47274;43.054;25.146;2023-05-11T00:17:28;95803.03;;;7.84;59.78
61408;BME280;47274;43.054;25.146;2023-05-11T00:19:53;95805.03;;;7.80;59.65
61408;BME280;47274;43.054;25.146;2023-05-11T00:22:19;95812.56;;;7.82;58.86
61408;BME280;47274;43.054;25.146;2023-05-11T00:24:45;95803.28;;;7.81;58.16
61408;BME280;47274;43.054;25.146;2023-05-11T00:27:11;95827.16;;;7.91;57.97
61408;BME280;47274;43.054;25.146;2023-05-11T00:29:37;95808.78;;;7.76;58.57
61408;BME280;47274;43.054;25.146;2023-05-11T00:32:03;95824.53;;;7.81;59.39
61408;BME280;47274;43.054;25.146;2023-05-11T00:34:28;95825.78;;;7.87;58.61
61408;BME280;47274;43.054;25.146;2023-05-11T00:36:54;95809.00;;;7.73;58.94
61408;BME280;47274;43.054;25.146;2023-05-11T00:39:20;95815.03;;;7.72;60.75
61408;BME280;47274;43.054;25.146;2023-05-11T00:41:46;95828.38;;;7.76;57.96
61408;BME280;47274;43.054;25.146;2023-05-11T00:44:12;95822.97;;;7.69;58.59
61408;BME280;47274;43.054;25.146;2023-05-11T00:46:38;95812.66;;;7.59;57.77
61408;BME280;47274;43.054;25.146;2023-05-11T00:49:03;95806.47;;;7.62;58.58
61408;BME280;47274;43.054;25.146;2023-05-11T00:51:30;95818.91;;;7.67;56.84
61408;BME280;47274;43.054;25.146;2023-05-11T00:53:58;95804.09;;;7.49;56.97
61408;BME280;47274;43.054;25.146;2023-05-11T00:56:24;95822.72;;;7.61;57.41
61408;BME280;47274;43.054;25.146;2023-05-11T00:58:51;95803.63;;;7.44;57.06
61408;BME280;47274;43.054;25.146;2023-05-11T01:01:16;95810.19;;;7.58;55.97
61408;BME280;47274;43.054;25.146;2023-05-11T01:03:43;95787.25;;;7.47;56.33
61408;BME280;47274;43.054;25.146;2023-05-11T01:06:34;95827.47;;;7.77;55.39
61408;BME280;47274;43.054;25.146;2023-05-11T01:15:11;95808.13;;;7.52;57.19
61408;BME280;47274;43.054;25.146;2023-05-11T01:20:29;95818.75;;;7.68;55.13
61408;BME280;47274;43.054;25.146;2023-05-11T01:23:08;95810.28;;;7.68;57.27
61408;BME280;47274;43.054;25.146;2023-05-11T01:31:29;95799.66;;;7.51;54.64
61408;BME280;47274;43.054;25.146;2023-05-11T01:34:08;95805.66;;;7.62;54.29
61408;BME280;47274;43.054;25.146;2023-05-11T01:36:40;95811.81;;;7.70;51.01
61408;BME280;47274;43.054;25.146;2023-05-11T01:39:08;95798.38;;;7.57;51.46
61408;BME280;47274;43.054;25.146;2023-05-11T01:41:37;95795.91;;;7.67;50.70
61408;BME280;47274;43.054;25.146;2023-05-11T01:44:08;95804.47;;;7.66;50.77
61408;BME280;47274;43.054;25.146;2023-05-11T01:46:34;95808.06;;;7.74;50.05
61408;BME280;47274;43.054;25.146;2023-05-11T01:49:05;95774.03;;;7.53;49.93
61408;BME280;47274;43.054;25.146;2023-05-11T01:51:35;95776.59;;;7.42;50.92
61408;BME280;47274;43.054;25.146;2023-05-11T01:54:06;95803.47;;;7.57;51.99
61408;BME280;47274;43.054;25.146;2023-05-11T01:56:34;95799.75;;;7.61;52.01
61408;BME280;47274;43.054;25.146;2023-05-11T01:59:01;95807.31;;;7.63;52.41
61408;BME280;47274;43.054;25.146;2023-05-11T02:01:28;95797.44;;;7.58;51.26
61408;BME280;47274;43.054;25.146;2023-05-11T02:03:58;95803.03;;;7.52;50.97
61408;BME280;47274;43.054;25.146;2023-05-11T02:06:28;95796.44;;;7.38;50.18
61408;BME280;47274;43.054;25.146;2023-05-11T02:08:57;95798.09;;;7.39;49.51
61408;BME280;47274;43.054;25.146;2023-05-11T02:11:25;95793.66;;;7.41;50.27
61408;BME280;47274;43.054;25.146;2023-05-11T02:13:55;95791.94;;;7.30;50.46
61408;BME280;47274;43.054;25.146;2023-05-11T02:16:23;95789.97;;;7.34;51.72
61408;BME280;47274;43.054;25.146;2023-05-11T02:18:50;95793.56;;;7.31;51.32
61408;BME280;47274;43.054;25.146;2023-05-11T02:21:17;95804.69;;;7.30;51.00
61408;BME280;47274;43.054;25.146;2023-05-11T02:23:44;95801.56;;;7.27;52.61
61408;BME280;47274;43.054;25.146;2023-05-11T02:26:13;95787.81;;;7.07;51.81
61408;BME280;47274;43.054;25.146;2023-05-11T02:28:41;95789.66;;;7.16;50.92
61408;BME280;47274;43.054;25.146;2023-05-11T02:31:11;95801.59;;;7.16;52.39
61408;BME280;47274;43.054;25.146;2023-05-11T02:33:43;95767.19;;;6.99;53.19
61408;BME280;47274;43.054;25.146;2023-05-11T02:36:16;95787.66;;;7.20;51.94
61408;BME280;47274;43.054;25.146;2023-05-11T02:38:45;95769.59;;;7.00;52.58
61408;BME280;47274;43.054;25.146;2023-05-11T02:41:17;95794.03;;;7.14;52.96
61408;BME280;47274;43.054;25.146;2023-05-11T02:43:50;95767.41;;;6.96;53.09
61408;BME280;47274;43.054;25.146;2023-05-11T02:46:19;95791.50;;;7.14;53.09
61408;BME280;47274;43.054;25.146;2023-05-11T02:48:50;95790.91;;;7.10;53.31
61408;BME280;47274;43.054;25.146;2023-05-11T02:51:21;95757.06;;;7.08;53.04
61408;BME280;47274;43.054;25.146;2023-05-11T02:53:53;95804.59;;;7.32;54.07
61408;BME280;47274;43.054;25.146;2023-05-11T02:56:23;95806.31;;;7.31;53.67
61408;BME280;47274;43.054;25.146;2023-05-11T02:58:51;95777.13;;;7.13;53.59
61408;BME280;47274;43.054;25.146;2023-05-11T03:01:21;95804.47;;;7.33;54.03
61408;BME280;47274;43.054;25.146;2023-05-11T03:03:47;95805.63;;;7.29;55.09
61408;BME280;47274;43.054;25.146;2023-05-11T03:06:13;95806.31;;;7.43;54.66
61408;BME280;47274;43.054;25.146;2023-05-11T03:08:40;95808.63;;;7.46;54.14
61408;BME280;47274;43.054;25.146;2023-05-11T03:11:08;95794.97;;;7.35;53.38
61408;BME280;47274;43.054;25.146;2023-05-11T03:13:34;95786.97;;;7.29;54.00
61408;BME280;47274;43.054;25.146;2023-05-11T03:16:03;95787.97;;;7.38;53.06
61408;BME280;47274;43.054;25.146;2023-05-11T03:18:32;95793.78;;;7.40;54.14
61408;BME280;47274;43.054;25.146;2023-05-11T03:20:59;95815.78;;;7.52;53.10
61408;BME280;47274;43.054;25.146;2023-05-11T03:23:27;95806.50;;;7.51;53.23
61408;BME280;47274;43.054;25.146;2023-05-11T03:25:53;95816.81;;;7.60;53.15
61408;BME280;47274;43.054;25.146;2023-05-11T03:28:21;95800.47;;;7.52;53.00
61408;BME280;47274;43.054;25.146;2023-05-11T03:30:59;95815.31;;;7.69;53.46
61408;BME280;47274;43.054;25.146;2023-05-11T03:33:25;95812.66;;;7.59;54.34
61408;BME280;47274;43.054;25.146;2023-05-11T03:35:52;95817.00;;;7.69;53.65
61408;BME280;47274;43.054;25.146;2023-05-11T03:38:23;95802.31;;;7.61;53.59
61408;BME280;47274;43.054;25.146;2023-05-11T03:40:52;95807.88;;;7.66;53.28
61408;BME280;47274;43.054;25.146;2023-05-11T03:43:19;95803.91;;;7.73;53.70
61408;BME280;47274;43.054;25.146;2023-05-11T03:45:49;95808.19;;;7.73;54.09
61408;BME280;47274;43.054;25.146;2023-05-11T03:48:19;95818.00;;;7.89;54.52
61408;BME280;47274;43.054;25.146;2023-05-11T03:50:45;95811.69;;;7.93;54.25
61408;BME280;47274;43.054;25.146;2023-05-11T03:53:14;95796.59;;;7.90;55.13
61408;BME280;47274;43.054;25.146;2023-05-11T03:55:41;95828.38;;;8.08;54.52
61408;BME280;47274;43.054;25.146;2023-05-11T03:58:08;95820.88;;;8.16;52.99
61408;BME280;47274;43.054;25.146;2023-05-11T04:00:41;95815.44;;;8.21;52.37
61408;BME280;47274;43.054;25.146;2023-05-11T04:03:10;95800.09;;;8.21;53.05
61408;BME280;47274;43.054;25.146;2023-05-11T04:05:37;95821.84;;;8.36;54.01
61408;BME280;47274;43.054;25.146;2023-05-11T04:08:06;95813.94;;;8.39;53.16
61408;BME280;47274;43.054;25.146;2023-05-11T04:10:32;95809.63;;;8.40;52.80
61408;BME280;47274;43.054;25.146;2023-05-11T04:12:57;95812.63;;;8.45;53.25
61408;BME280;47274;43.054;25.146;2023-05-11T04:15:23;95805.22;;;8.42;53.22
61408;BME280;47274;43.054;25.146;2023-05-11T04:17:49;95820.78;;;8.60;53.03
61408;BME280;47274;43.054;25.146;2023-05-11T04:20:15;95816.94;;;8.65;52.47
61408;BME280;47274;43.054;25.146;2023-05-11T04:22:41;95804.13;;;8.65;52.99
61408;BME280;47274;43.054;25.146;2023-05-11T04:25:07;95804.94;;;8.66;54.65
61408;BME280;47274;43.054;25.146;2023-05-11T04:27:33;95818.34;;;8.89;53.41
61408;BME280;47274;43.054;25.146;2023-05-11T04:29:59;95838.66;;;9.11;52.48
61408;BME280;47274;43.054;25.146;2023-05-11T04:32:27;95811.50;;;8.89;52.88
61408;BME280;47274;43.054;25.146;2023-05-11T04:34:55;95807.53;;;9.06;51.43
61408;BME280;47274;43.054;25.146;2023-05-11T04:37:23;95816.69;;;9.09;51.98
61408;BME280;47274;43.054;25.146;2023-05-11T04:39:51;95826.91;;;9.49;52.30
61408;BME280;47274;43.054;25.146;2023-05-11T04:42:17;95835.00;;;9.64;53.13
61408;BME280;47274;43.054;25.146;2023-05-11T04:44:52;95824.50;;;9.67;51.04
61408;BME280;47274;43.054;25.146;2023-05-11T04:47:19;95819.53;;;9.85;52.03
61408;BME280;47274;43.054;25.146;2023-05-11T04:49:46;95834.09;;;9.94;52.16
61408;BME280;47274;43.054;25.146;2023-05-11T04:52:12;95825.75;;;9.92;51.99
61408;BME280;47274;43.054;25.146;2023-05-11T04:54:39;95811.97;;;10.12;52.45
61408;BME280;47274;43.054;25.146;2023-05-11T04:57:04;95817.75;;;10.14;52.15
61408;BME280;47274;43.054;25.146;2023-05-11T04:59:30;95828.69;;;9.97;52.59
61408;BME280;47274;43.054;25.146;2023-05-11T05:01:57;95817.91;;;10.03;52.17
61408;BME280;47274;43.054;25.146;2023-05-11T05:04:23;95822.91;;;10.14;51.90
61408;BME280;47274;43.054;25.146;2023-05-11T05:06:49;95831.13;;;10.18;53.43
61408;BME280;47274;43.054;25.146;2023-05-11T05:09:15;95823.03;;;10.42;51.81
61408;BME280;47274;43.054;25.146;2023-05-11T05:11:41;95827.84;;;10.64;51.18
61408;BME280;47274;43.054;25.146;2023-05-11T05:14:07;95819.81;;;10.40;52.71
61408;BME280;47274;43.054;25.146;2023-05-11T05:16:32;95797.94;;;10.36;51.46
61408;BME280;47274;43.054;25.146;2023-05-11T05:18:59;95805.19;;;10.50;52.69
61408;BME280;47274;43.054;25.146;2023-05-11T05:21:25;95830.50;;;10.82;52.12
61408;BME280;47274;43.054;25.146;2023-05-11T05:23:51;95836.63;;;11.09;51.67
61408;BME280;47274;43.054;25.146;2023-05-11T05:26:16;95831.25;;;11.02;52.36
61408;BME280;47274;43.054;25.146;2023-05-11T05:28:44;95822.97;;;11.08;51.85
61408;BME280;47274;43.054;25.146;2023-05-11T05:31:09;95835.06;;;11.26;52.30
61408;BME280;47274;43.054;25.146;2023-05-11T05:33:35;95834.19;;;11.35;51.01
61408;BME280;47274;43.054;25.146;2023-05-11T05:36:01;95838.38;;;11.08;51.55
61408;BME280;47274;43.054;25.146;2023-05-11T05:38:27;95848.50;;;11.10;51.73
61408;BME280;47274;43.054;25.146;2023-05-11T05:40:55;95837.72;;;11.34;51.01
61408;BME280;47274;43.054;25.146;2023-05-11T05:43:21;95825.81;;;11.33;51.13
61408;BME280;47274;43.054;25.146;2023-05-11T05:45:47;95850.72;;;11.60;51.65
61408;BME280;47274;43.054;25.146;2023-05-11T05:48:13;95847.16;;;11.61;51.83
61408;BME280;47274;43.054;25.146;2023-05-11T05:50:39;95831.69;;;11.71;52.57
61408;BME280;47274;43.054;25.146;2023-05-11T05:53:05;95821.25;;;11.72;51.63
61408;BME280;47274;43.054;25.146;2023-05-11T05:55:32;95821.75;;;11.76;51.48
61408;BME280;47274;43.054;25.146;2023-05-11T05:58:01;95836.09;;;11.78;50.66
61408;BME280;47274;43.054;25.146;2023-05-11T06:00:27;95842.53;;;12.10;49.78
61408;BME280;47274;43.054;25.146;2023-05-11T06:03:00;95859.63;;;12.37;49.57
61408;BME280;47274;43.054;25.146;2023-05-11T06:05:26;95857.16;;;12.71;49.32
61408;BME280;47274;43.054;25.146;2023-05-11T06:07:52;95844.44;;;12.26;48.53
61408;BME280;47274;43.054;25.146;2023-05-11T06:10:18;95844.91;;;12.47;51.19
61408;BME280;47274;43.054;25.146;2023-05-11T06:12:45;95857.44;;;12.68;48.33
61408;BME280;47274;43.054;25.146;2023-05-11T06:15:11;95865.34;;;12.67;49.19
61408;BME280;47274;43.054;25.146;2023-05-11T06:17:41;95855.75;;;13.03;51.26
61408;BME280;47274;43.054;25.146;2023-05-11T06:20:07;95875.44;;;12.86;48.39
61408;BME280;47274;43.054;25.146;2023-05-11T06:22:34;95848.16;;;13.27;48.15
61408;BME280;47274;43.054;25.146;2023-05-11T06:25:00;95863.19;;;13.40;49.67
61408;BME280;47274;43.054;25.146;2023-05-11T06:27:27;95868.19;;;13.16;49.65
61408;BME280;47274;43.054;25.146;2023-05-11T06:29:55;95870.59;;;13.43;48.47
61408;BME280;47274;43.054;25.146;2023-05-11T06:32:20;95863.94;;;13.24;47.27
61408;BME280;47274;43.054;25.146;2023-05-11T06:34:46;95871.22;;;13.11;50.05
61408;BME280;47274;43.054;25.146;2023-05-11T06:37:13;95876.41;;;13.96;50.10
61408;BME280;47274;43.054;25.146;2023-05-11T06:39:47;95878.13;;;13.71;49.54
61408;BME280;47274;43.054;25.146;2023-05-11T06:42:12;95867.16;;;13.69;46.81
61408;BME280;47274;43.054;25.146;2023-05-11T06:44:38;95863.28;;;13.73;49.55
61408;BME280;47274;43.054;25.146;2023-05-11T06:47:06;95872.47;;;13.25;49.00
61408;BME280;47274;43.054;25.146;2023-05-11T06:49:33;95848.47;;;13.24;48.54
61408;BME280;47274;43.054;25.146;2023-05-11T06:51:59;95880.13;;;14.18;48.48
61408;BME280;47274;43.054;25.146;2023-05-11T06:54:25;95852.25;;;14.13;48.97
61408;BME280;47274;43.054;25.146;2023-05-11T06:56:50;95843.56;;;14.55;47.75
61408;BME280;47274;43.054;25.146;2023-05-11T06:59:16;95874.06;;;14.52;47.71
61408;BME280;47274;43.054;25.146;2023-05-11T07:01:42;95860.47;;;14.82;47.80
61408;BME280;47274;43.054;25.146;2023-05-11T07:04:08;95864.81;;;14.49;46.96
61408;BME280;47274;43.054;25.146;2023-05-11T07:06:33;95868.53;;;14.38;45.84
61408;BME280;47274;43.054;25.146;2023-05-11T07:09:00;95867.88;;;14.20;48.29
61408;BME280;47274;43.054;25.146;2023-05-11T07:11:28;95881.63;;;14.37;45.99
61408;BME280;47274;43.054;25.146;2023-05-11T07:13:54;95871.47;;;14.52;46.83
61408;BME280;47274;43.054;25.146;2023-05-11T07:16:20;95851.81;;;13.59;49.93
61408;BME280;47274;43.054;25.146;2023-05-11T07:18:46;95870.53;;;13.78;45.72
61408;BME280;47274;43.054;25.146;2023-05-11T07:21:12;95872.56;;;13.49;48.82
61408;BME280;47274;43.054;25.146;2023-05-11T07:23:37;95859.41;;;13.61;47.86
61408;BME280;47274;43.054;25.146;2023-05-11T07:26:03;95875.69;;;13.78;48.04
61408;BME280;47274;43.054;25.146;2023-05-11T07:28:36;95875.38;;;13.72;47.66
61408;BME280;47274;43.054;25.146;2023-05-11T07:31:02;95872.97;;;13.71;50.02
61408;BME280;47274;43.054;25.146;2023-05-11T07:33:28;95871.59;;;14.42;47.52
61408;BME280;47274;43.054;25.146;2023-05-11T07:35:54;95857.53;;;14.12;46.44
61408;BME280;47274;43.054;25.146;2023-05-11T07:38:20;95882.94;;;14.57;46.59
61408;BME280;47274;43.054;25.146;2023-05-11T07:40:45;95866.28;;;14.27;47.43
61408;BME280;47274;43.054;25.146;2023-05-11T07:43:11;95833.00;;;14.98;47.59
61408;BME280;47274;43.054;25.146;2023-05-11T07:45:38;95862.16;;;15.23;43.75
61408;BME280;47274;43.054;25.146;2023-05-11T07:48:04;95875.50;;;14.79;43.85
61408;BME280;47274;43.054;25.146;2023-05-11T07:50:30;95872.56;;;14.98;42.31
61408;BME280;47274;43.054;25.146;2023-05-11T07:52:56;95875.75;;;15.16;44.22
61408;BME280;47274;43.054;25.146;2023-05-11T07:55:22;95882.09;;;14.32;44.06
61408;BME280;47274;43.054;25.146;2023-05-11T07:57:52;95870.50;;;14.69;42.63
61408;BME280;47274;43.054;25.146;2023-05-11T08:00:19;95881.78;;;14.43;41.26
61408;BME280;47274;43.054;25.146;2023-05-11T08:02:45;95857.72;;;14.76;43.27
61408;BME280;47274;43.054;25.146;2023-05-11T08:05:11;95868.56;;;14.71;42.91
61408;BME280;47274;43.054;25.146;2023-05-11T08:07:37;95866.84;;;15.58;44.28
61408;BME280;47274;43.054;25.146;2023-05-11T08:10:03;95886.03;;;15.33;41.82
61408;BME280;47274;43.054;25.146;2023-05-11T08:12:29;95874.56;;;15.35;40.61
61408;BME280;47274;43.054;25.146;2023-05-11T08:14:55;95876.13;;;14.73;40.97
61408;BME280;47274;43.054;25.146;2023-05-11T08:17:20;95853.72;;;15.76;42.42
61408;BME280;47274;43.054;25.146;2023-05-11T08:19:46;95853.72;;;16.45;42.87
61408;BME280;47274;43.054;25.146;2023-05-11T08:22:12;95856.13;;;15.38;43.47
61408;BME280;47274;43.054;25.146;2023-05-11T08:24:37;95872.75;;;15.44;41.26
61408;BME280;47274;43.054;25.146;2023-05-11T08:27:03;95867.06;;;15.88;41.44
61408;BME280;47274;43.054;25.146;2023-05-11T08:29:29;95867.75;;;15.43;41.71
61408;BME280;47274;43.054;25.146;2023-05-11T08:31:55;95870.94;;;16.38;40.45
61408;BME280;47274;43.054;25.146;2023-05-11T08:34:23;95875.31;;;15.52;41.34
61408;BME280;47274;43.054;25.146;2023-05-11T08:36:49;95878.66;;;16.23;42.24
61408;BME280;47274;43.054;25.146;2023-05-11T08:39:15;95870.25;;;15.98;38.37
61408;BME280;47274;43.054;25.146;2023-05-11T08:41:42;95881.81;;;16.10;39.35
61408;BME280;47274;43.054;25.146;2023-05-11T08:44:09;95868.88;;;16.33;37.85
61408;BME280;47274;43.054;25.146;2023-05-11T08:46:39;95873.50;;;16.99;37.36
61408;BME280;47274;43.054;25.146;2023-05-11T08:49:07;95884.94;;;16.29;36.87
61408;BME280;47274;43.054;25.146;2023-05-11T08:51:33;95857.63;;;15.95;37.36
61408;BME280;47274;43.054;25.146;2023-05-11T08:53:59;95877.66;;;15.62;37.25
61408;BME280;47274;43.054;25.146;2023-05-11T08:56:25;95876.34;;;16.28;37.51
61408;BME280;47274;43.054;25.146;2023-05-11T08:58:54;95806.41;;;15.20;39.98
61408;BME280;47274;43.054;25.146;2023-05-11T09:01:22;95875.81;;;16.10;38.09
61408;BME280;47274;43.054;25.146;2023-05-11T09:03:49;95857.78;;;16.25;40.51
61408;BME280;47274;43.054;25.146;2023-05-11T09:06:15;95847.03;;;16.89;38.53
61408;BME280;47274;43.054;25.146;2023-05-11T09:08:43;95857.22;;;17.49;38.96
61408;BME280;47274;43.054;25.146;2023-05-11T09:11:10;95855.50;;;17.71;38.44
61408;BME280;47274;43.054;25.146;2023-05-11T09:13:36;95872.47;;;16.70;38.44
61408;BME280;47274;43.054;25.146;2023-05-11T09:16:02;95872.78;;;15.75;39.55
61408;BME280;47274;43.054;25.146;2023-05-11T09:18:28;95868.66;;;16.58;38.01
61408;BME280;47274;43.054;25.146;2023-05-11T09:20:54;95863.09;;;16.46;36.35
61408;BME280;47274;43.054;25.146;2023-05-11T09:23:24;95862.03;;;16.78;37.27
61408;BME280;47274;43.054;25.146;2023-05-11T09:25:51;95861.53;;;16.83;37.19
61408;BME280;47274;43.054;25.146;2023-05-11T09:28:24;95863.38;;;18.14;38.49
61408;BME280;47274;43.054;25.146;2023-05-11T09:30:51;95861.41;;;17.80;38.11
61408;BME280;47274;43.054;25.146;2023-05-11T09:33:24;95849.56;;;17.12;38.12
61408;BME280;47274;43.054;25.146;2023-05-11T09:35:51;95857.13;;;17.72;38.69
61408;BME280;47274;43.054;25.146;2023-05-11T09:38:17;95840.13;;;18.28;37.92
61408;BME280;47274;43.054;25.146;2023-05-11T09:40:53;95859.16;;;18.13;35.82
61408;BME280;47274;43.054;25.146;2023-05-11T09:45:46;95851.81;;;18.38;37.82
61408;BME280;47274;43.054;25.146;2023-05-11T09:48:24;95847.09;;;17.69;37.78
61408;BME280;47274;43.054;25.146;2023-05-11T09:50:57;95835.06;;;16.88;38.06
61408;BME280;47274;43.054;25.146;2023-05-11T09:53:40;95835.97;;;18.33;36.27
61408;BME280;47274;43.054;25.146;2023-05-11T09:56:11;95840.78;;;18.58;36.27
61408;BME280;47274;43.054;25.146;2023-05-11T09:58:50;95828.53;;;17.21;38.37
61408;BME280;47274;43.054;25.146;2023-05-11T10:01:18;95839.31;;;17.69;38.80
61408;BME280;47274;43.054;25.146;2023-05-11T10:03:47;95836.66;;;17.33;38.22
61408;BME280;47274;43.054;25.146;2023-05-11T10:06:14;95821.31;;;16.87;38.12
61408;BME280;47274;43.054;25.146;2023-05-11T10:08:40;95823.19;;;17.89;39.52
61408;BME280;47274;43.054;25.146;2023-05-11T10:11:06;95813.69;;;17.45;37.06
61408;BME280;47274;43.054;25.146;2023-05-11T10:13:34;95820.78;;;18.09;38.40
61408;BME280;47274;43.054;25.146;2023-05-11T10:16:02;95819.59;;;18.11;38.10
61408;BME280;47274;43.054;25.146;2023-05-11T10:18:32;95825.31;;;18.50;39.39
61408;BME280;47274;43.054;25.146;2023-05-11T10:20:58;95824.63;;;18.90;35.90
61408;BME280;47274;43.054;25.146;2023-05-11T10:23:25;95839.19;;;18.57;37.47
61408;BME280;47274;43.054;25.146;2023-05-11T10:25:54;95832.84;;;17.14;39.66
61408;BME280;47274;43.054;25.146;2023-05-11T10:28:21;95833.53;;;17.52;39.90
61408;BME280;47274;43.054;25.146;2023-05-11T10:30:48;95843.41;;;17.27;39.54
61408;BME280;47274;43.054;25.146;2023-05-11T10:33:14;95807.38;;;17.03;39.67
61408;BME280;47274;43.054;25.146;2023-05-11T10:35:41;95827.38;;;17.24;39.64
61408;BME280;47274;43.054;25.146;2023-05-11T10:38:07;95818.81;;;16.79;39.78
61408;BME280;47274;43.054;25.146;2023-05-11T10:40:38;95821.41;;;16.79;39.21
61408;BME280;47274;43.054;25.146;2023-05-11T10:46:13;95801.47;;;16.42;41.49
61408;BME280;47274;43.054;25.146;2023-05-11T10:49:04;95824.63;;;16.58;40.44
61408;BME280;47274;43.054;25.146;2023-05-11T10:51:40;95823.72;;;16.51;43.01
61408;BME280;47274;43.054;25.146;2023-05-11T11:02:43;95805.53;;;16.59;40.75
61408;BME280;47274;43.054;25.146;2023-05-11T11:05:09;95837.03;;;17.45;41.18
61408;BME280;47274;43.054;25.146;2023-05-11T11:07:59;95831.16;;;17.07;39.42
61408;BME280;47274;43.054;25.146;2023-05-11T11:10:42;95825.38;;;16.29;40.08
61408;BME280;47274;43.054;25.146;2023-05-11T11:13:11;95819.94;;;16.39;42.00
61408;BME280;47274;43.054;25.146;2023-05-11T11:18:22;95824.06;;;17.45;40.39
61408;BME280;47274;43.054;25.146;2023-05-11T11:20:49;95832.31;;;17.04;40.17
61408;BME280;47274;43.054;25.146;2023-05-11T11:26:06;95795.28;;;16.95;39.99
61408;BME280;47274;43.054;25.146;2023-05-11T11:31:27;95798.00;;;18.60;39.65
61408;BME280;47274;43.054;25.146;2023-05-11T11:33:55;95799.34;;;18.28;38.75
61408;BME280;47274;43.054;25.146;2023-05-11T11:42:14;95804.41;;;16.76;40.34
61408;BME280;47274;43.054;25.146;2023-05-11T11:44:41;95797.31;;;17.44;40.45
61408;BME280;47274;43.054;25.146;2023-05-11T11:47:19;95805.22;;;16.92;41.56
61408;BME280;47274;43.054;25.146;2023-05-11T11:49:46;95809.31;;;17.31;42.22
61408;BME280;47274;43.054;25.146;2023-05-11T11:54:51;95774.63;;;16.20;41.38
61408;BME280;47274;43.054;25.146;2023-05-11T12:02:25;95794.31;;;16.96;40.86
61408;BME280;47274;43.054;25.146;2023-05-11T12:07:34;95779.28;;;17.94;42.77
61408;BME280;47274;43.054;25.146;2023-05-11T12:10:03;95776.75;;;18.00;38.78
61408;BME280;47274;43.054;25.146;2023-05-11T12:12:30;95787.16;;;17.64;40.04
61408;BME280;47274;43.054;25.146;2023-05-11T12:14:55;95785.16;;;18.03;41.68
61408;BME280;47274;43.054;25.146;2023-05-11T12:17:26;95794.47;;;18.40;39.21
61408;BME280;47274;43.054;25.146;2023-05-11T12:19:54;95767.22;;;17.50;39.24
61408;BME280;47274;43.054;25.146;2023-05-11T12:22:21;95784.75;;;17.84;40.42
61408;BME280;47274;43.054;25.146;2023-05-11T12:24:48;95770.81;;;17.85;40.61
61408;BME280;47274;43.054;25.146;2023-05-11T12:27:17;95763.28;;;17.54;39.84
61408;BME280;47274;43.054;25.146;2023-05-11T12:29:48;95769.06;;;17.71;39.81
61408;BME280;47274;43.054;25.146;2023-05-11T12:32:14;95762.00;;;17.28;39.91
61408;BME280;47274;43.054;25.146;2023-05-11T12:35:02;95769.03;;;16.31;40.58
61408;BME280;47274;43.054;25.146;2023-05-11T12:37:30;95756.16;;;16.75;41.69
61408;BME280;47274;43.054;25.146;2023-05-11T12:39:57;95754.84;;;16.56;41.70
61408;BME280;47274;43.054;25.146;2023-05-11T12:42:23;95755.81;;;17.29;41.34
61408;BME280;47274;43.054;25.146;2023-05-11T12:44:49;95755.44;;;16.96;40.83
61408;BME280;47274;43.054;25.146;2023-05-11T12:47:16;95738.06;;;16.52;42.06
61408;BME280;47274;43.054;25.146;2023-05-11T12:49:42;95763.06;;;16.60;41.09
61408;BME280;47274;43.054;25.146;2023-05-11T12:52:08;95733.06;;;16.95;39.92
61408;BME280;47274;43.054;25.146;2023-05-11T12:54:37;95755.41;;;16.81;41.80
61408;BME280;47274;43.054;25.146;2023-05-11T12:57:05;95755.16;;;16.91;40.72
61408;BME280;47274;43.054;25.146;2023-05-11T12:59:33;95739.22;;;16.50;41.32
61408;BME280;47274;43.054;25.146;2023-05-11T13:02:20;95741.59;;;16.37;41.43
61408;BME280;47274;43.054;25.146;2023-05-11T13:04:46;95739.44;;;16.93;40.76
61408;BME280;47274;43.054;25.146;2023-05-11T13:07:13;95708.50;;;16.91;40.85
61408;BME280;47274;43.054;25.146;2023-05-11T13:09:40;95739.06;;;16.81;41.53
61408;BME280;47274;43.054;25.146;2023-05-11T13:12:15;95712.16;;;16.97;40.19
61408;BME280;47274;43.054;25.146;2023-05-11T13:14:49;95722.25;;;16.62;41.97
61408;BME280;47274;43.054;25.146;2023-05-11T13:17:32;95728.44;;;16.76;41.59
61408;BME280;47274;43.054;25.146;2023-05-11T13:22:40;95730.06;;;16.77;43.13
61408;BME280;47274;43.054;25.146;2023-05-11T13:25:06;95735.66;;;16.95;41.66
61408;BME280;47274;43.054;25.146;2023-05-11T13:27:34;95737.03;;;16.76;42.08
61408;BME280;47274;43.054;25.146;2023-05-11T13:30:00;95726.25;;;16.35;41.76
61408;BME280;47274;43.054;25.146;2023-05-11T13:32:26;95737.50;;;16.27;40.91
61408;BME280;47274;43.054;25.146;2023-05-11T13:34:52;95739.47;;;16.25;40.76
61408;BME280;47274;43.054;25.146;2023-05-11T13:37:17;95730.44;;;16.51;41.58
61408;BME280;47274;43.054;25.146;2023-05-11T13:39:43;95716.34;;;16.53;41.96
61408;BME280;47274;43.054;25.146;2023-05-11T13:42:09;95715.00;;;17.02;44.43
61408;BME280;47274;43.054;25.146;2023-05-11T13:44:35;95707.31;;;17.09;43.00
61408;BME280;47274;43.054;25.146;2023-05-11T13:47:00;95721.38;;;17.36;42.46
61408;BME280;47274;43.054;25.146;2023-05-11T13:49:26;95727.69;;;17.26;43.45
61408;BME280;47274;43.054;25.146;2023-05-11T13:51:52;95725.84;;;16.91;42.95